sensor_id;sensor_type;location;lat;lon;timestamp;temperature;humidity
71291;DHT22;59073;51.994;4.448;2022-09-01T00:01:15;16.66;73.39
71291;DHT22;59073;51.994;4.448;2022-09-01T00:03:48;16.59;73.73
71291;DHT22;59073;51.994;4.448;2022-09-01T00:06:20;16.64;73.32
71291;DHT22;59073;51.994;4.448;2022-09-01T00:08:51;16.63;73.62
71291;DHT22;59073;51.994;4.448;2022-09-01T00:11:18;16.77;72.88
71291;DHT22;59073;51.994;4.448;2022-09-01T00:13:49;16.70;72.98
71291;DHT22;59073;51.994;4.448;2022-09-01T00:16:16;16.62;73.23
71291;DHT22;59073;51.994;4.448;2022-09-01T00:18:44;16.64;73.40
71291;DHT22;59073;51.994;4.448;2022-09-01T00:21:16;16.56;73.60
71291;DHT22;59073;51.994;4.448;2022-09-01T00:23:42;16.67;73.13
71291;DHT22;59073;51.994;4.448;2022-09-01T00:26:08;16.57;73.71
71291;DHT22;59073;51.994;4.448;2022-09-01T00:28:35;16.60;73.23
71291;DHT22;59073;51.994;4.448;2022-09-01T00:31:01;16.69;72.97
71291;DHT22;59073;51.994;4.448;2022-09-01T00:33:27;16.60;73.30
71291;DHT22;59073;51.994;4.448;2022-09-01T00:35:53;16.57;73.60
71291;DHT22;59073;51.994;4.448;2022-09-01T00:38:19;16.46;73.83
71291;DHT22;59073;51.994;4.448;2022-09-01T00:40:46;16.59;73.46
71291;DHT22;59073;51.994;4.448;2022-09-01T00:43:45;16.52;73.53
71291;DHT22;59073;51.994;4.448;2022-09-01T00:46:18;16.52;73.70
71291;DHT22;59073;51.994;4.448;2022-09-01T00:48:46;16.49;73.80
71291;DHT22;59073;51.994;4.448;2022-09-01T00:51:15;16.40;74.29
71291;DHT22;59073;51.994;4.448;2022-09-01T00:53:42;16.45;73.97
71291;DHT22;59073;51.994;4.448;2022-09-01T00:56:11;16.46;74.05
71291;DHT22;59073;51.994;4.448;2022-09-01T00:58:38;16.50;73.69
71291;DHT22;59073;51.994;4.448;2022-09-01T01:01:07;16.49;73.72
71291;DHT22;59073;51.994;4.448;2022-09-01T01:03:34;16.43;74.10
71291;DHT22;59073;51.994;4.448;2022-09-01T01:06:04;16.38;74.15
71291;DHT22;59073;51.994;4.448;2022-09-01T01:08:37;16.34;74.57
71291;DHT22;59073;51.994;4.448;2022-09-01T01:11:08;16.46;73.97
71291;DHT22;59073;51.994;4.448;2022-09-01T01:13:56;16.48;73.82
71291;DHT22;59073;51.994;4.448;2022-09-01T01:16:25;16.42;74.05
71291;DHT22;59073;51.994;4.448;2022-09-01T01:18:51;16.50;73.83
71291;DHT22;59073;51.994;4.448;2022-09-01T01:21:39;16.52;73.78
71291;DHT22;59073;51.994;4.448;2022-09-01T01:24:32;16.55;73.64
71291;DHT22;59073;51.994;4.448;2022-09-01T01:26:59;16.48;73.78
71291;DHT22;59073;51.994;4.448;2022-09-01T01:29:32;16.36;74.15
71291;DHT22;59073;51.994;4.448;2022-09-01T01:31:57;16.46;73.82
71291;DHT22;59073;51.994;4.448;2022-09-01T01:34:23;16.48;74.18
71291;DHT22;59073;51.994;4.448;2022-09-01T01:36:49;16.39;74.56
71291;DHT22;59073;51.994;4.448;2022-09-01T01:39:20;16.39;74.16
71291;DHT22;59073;51.994;4.448;2022-09-01T01:41:51;16.26;74.50
71291;DHT22;59073;51.994;4.448;2022-09-01T01:44:26;16.32;74.17
71291;DHT22;59073;51.994;4.448;2022-09-01T01:46:53;16.30;74.16
71291;DHT22;59073;51.994;4.448;2022-09-01T01:49:24;16.33;74.63
71291;DHT22;59073;51.994;4.448;2022-09-01T01:51:52;16.18;74.89
71291;DHT22;59073;51.994;4.448;2022-09-01T01:54:21;16.21;75.12
71291;DHT22;59073;51.994;4.448;2022-09-01T01:56:47;16.25;74.81
71291;DHT22;59073;51.994;4.448;2022-09-01T01:59:13;16.25;74.58
71291;DHT22;59073;51.994;4.448;2022-09-01T02:01:40;16.30;74.46
71291;DHT22;59073;51.994;4.448;2022-09-01T02:04:07;16.26;74.92
71291;DHT22;59073;51.994;4.448;2022-09-01T02:06:37;16.21;74.65
71291;DHT22;59073;51.994;4.448;2022-09-01T02:09:11;16.30;74.54
71291;DHT22;59073;51.994;4.448;2022-09-01T02:11:37;16.05;75.55
71291;DHT22;59073;51.994;4.448;2022-09-01T02:14:05;16.08;75.29
71291;DHT22;59073;51.994;4.448;2022-09-01T02:16:31;16.11;75.24
71291;DHT22;59073;51.994;4.448;2022-09-01T02:18:59;16.13;74.96
71291;DHT22;59073;51.994;4.448;2022-09-01T02:21:40;16.12;74.74
71291;DHT22;59073;51.994;4.448;2022-09-01T02:24:13;16.05;75.39
71291;DHT22;59073;51.994;4.448;2022-09-01T02:26:45;15.98;75.37
71291;DHT22;59073;51.994;4.448;2022-09-01T02:29:15;16.05;75.32
71291;DHT22;59073;51.994;4.448;2022-09-01T02:31:47;15.97;75.69
71291;DHT22;59073;51.994;4.448;2022-09-01T02:34:14;15.85;76.30
71291;DHT22;59073;51.994;4.448;2022-09-01T02:36:44;16.00;75.68
71291;DHT22;59073;51.994;4.448;2022-09-01T02:39:19;16.04;75.51
71291;DHT22;59073;51.994;4.448;2022-09-01T02:41:47;15.94;75.72
71291;DHT22;59073;51.994;4.448;2022-09-01T02:44:14;15.87;75.84
71291;DHT22;59073;51.994;4.448;2022-09-01T02:46:42;15.80;75.89
71291;DHT22;59073;51.994;4.448;2022-09-01T02:49:09;15.85;75.70
71291;DHT22;59073;51.994;4.448;2022-09-01T02:51:41;15.77;75.89
71291;DHT22;59073;51.994;4.448;2022-09-01T02:54:07;15.74;76.10
71291;DHT22;59073;51.994;4.448;2022-09-01T02:56:32;15.80;75.86
71291;DHT22;59073;51.994;4.448;2022-09-01T02:58:58;15.84;75.75
71291;DHT22;59073;51.994;4.448;2022-09-01T03:01:29;15.74;76.08
71291;DHT22;59073;51.994;4.448;2022-09-01T03:04:00;15.81;76.13
71291;DHT22;59073;51.994;4.448;2022-09-01T03:06:28;15.82;75.90
71291;DHT22;59073;51.994;4.448;2022-09-01T03:08:56;15.70;76.24
71291;DHT22;59073;51.994;4.448;2022-09-01T03:11:25;15.82;75.75
71291;DHT22;59073;51.994;4.448;2022-09-01T03:13:51;15.81;75.81
71291;DHT22;59073;51.994;4.448;2022-09-01T03:16:17;15.77;76.13
71291;DHT22;59073;51.994;4.448;2022-09-01T03:18:58;15.75;75.87
71291;DHT22;59073;51.994;4.448;2022-09-01T03:21:25;15.64;76.27
71291;DHT22;59073;51.994;4.448;2022-09-01T03:23:51;15.70;76.18
71291;DHT22;59073;51.994;4.448;2022-09-01T03:26:21;15.70;75.74
71291;DHT22;59073;51.994;4.448;2022-09-01T03:28:49;15.74;75.50
71291;DHT22;59073;51.994;4.448;2022-09-01T03:31:19;15.72;75.72
71291;DHT22;59073;51.994;4.448;2022-09-01T03:33:55;15.71;75.50
71291;DHT22;59073;51.994;4.448;2022-09-01T03:36:24;15.81;75.40
71291;DHT22;59073;51.994;4.448;2022-09-01T03:38:52;15.70;75.42
71291;DHT22;59073;51.994;4.448;2022-09-01T03:41:22;15.62;75.65
71291;DHT22;59073;51.994;4.448;2022-09-01T03:43:50;15.51;75.89
71291;DHT22;59073;51.994;4.448;2022-09-01T03:46:21;15.62;75.76
71291;DHT22;59073;51.994;4.448;2022-09-01T03:48:53;15.49;75.83
71291;DHT22;59073;51.994;4.448;2022-09-01T03:51:21;15.41;76.14
71291;DHT22;59073;51.994;4.448;2022-09-01T03:53:50;15.40;76.28
71291;DHT22;59073;51.994;4.448;2022-09-01T03:56:22;15.30;76.34
71291;DHT22;59073;51.994;4.448;2022-09-01T03:58:53;15.34;76.02
71291;DHT22;59073;51.994;4.448;2022-09-01T04:01:21;15.24;76.81
71291;DHT22;59073;51.994;4.448;2022-09-01T04:03:49;15.24;76.64
71291;DHT22;59073;51.994;4.448;2022-09-01T04:06:16;15.23;76.40
71291;DHT22;59073;51.994;4.448;2022-09-01T04:08:48;15.33;76.25
71291;DHT22;59073;51.994;4.448;2022-09-01T04:11:18;15.26;76.53
71291;DHT22;59073;51.994;4.448;2022-09-01T04:13:49;15.23;76.44
71291;DHT22;59073;51.994;4.448;2022-09-01T04:19:22;15.23;76.60
71291;DHT22;59073;51.994;4.448;2022-09-01T04:21:54;15.14;76.81
71291;DHT22;59073;51.994;4.448;2022-09-01T04:24:21;15.18;76.68
71291;DHT22;59073;51.994;4.448;2022-09-01T04:26:50;15.14;76.78
71291;DHT22;59073;51.994;4.448;2022-09-01T04:29:18;15.04;77.24
71291;DHT22;59073;51.994;4.448;2022-09-01T04:31:44;14.95;77.72
71291;DHT22;59073;51.994;4.448;2022-09-01T04:34:12;14.92;77.90
71291;DHT22;59073;51.994;4.448;2022-09-01T04:36:40;14.93;77.72
71291;DHT22;59073;51.994;4.448;2022-09-01T04:39:07;15.09;76.54
71291;DHT22;59073;51.994;4.448;2022-09-01T04:41:36;15.06;76.59
71291;DHT22;59073;51.994;4.448;2022-09-01T04:44:04;14.99;76.63
71291;DHT22;59073;51.994;4.448;2022-09-01T04:46:32;14.90;77.05
71291;DHT22;59073;51.994;4.448;2022-09-01T04:49:00;14.95;76.93
71291;DHT22;59073;51.994;4.448;2022-09-01T04:51:33;14.99;76.93
71291;DHT22;59073;51.994;4.448;2022-09-01T04:54:01;14.86;77.29
71291;DHT22;59073;51.994;4.448;2022-09-01T04:56:27;15.00;76.65
71291;DHT22;59073;51.994;4.448;2022-09-01T04:59:02;14.96;76.82
71291;DHT22;59073;51.994;4.448;2022-09-01T05:01:43;15.02;76.49
71291;DHT22;59073;51.994;4.448;2022-09-01T05:04:16;15.18;75.92
71291;DHT22;59073;51.994;4.448;2022-09-01T05:06:48;15.14;75.99
71291;DHT22;59073;51.994;4.448;2022-09-01T05:09:16;15.31;75.19
71291;DHT22;59073;51.994;4.448;2022-09-01T05:25:56;16.42;70.71
71291;DHT22;59073;51.994;4.448;2022-09-01T05:28:21;16.62;69.93
71291;DHT22;59073;51.994;4.448;2022-09-01T05:34:03;17.00;68.62
71291;DHT22;59073;51.994;4.448;2022-09-01T05:43:19;17.46;67.10
71291;DHT22;59073;51.994;4.448;2022-09-01T05:45:47;17.85;65.64
71291;DHT22;59073;51.994;4.448;2022-09-01T05:48:13;18.09;63.99
71291;DHT22;59073;51.994;4.448;2022-09-01T05:50:42;18.09;64.06
71291;DHT22;59073;51.994;4.448;2022-09-01T05:53:11;18.16;63.96
71291;DHT22;59073;51.994;4.448;2022-09-01T05:55:55;18.30;63.20
71291;DHT22;59073;51.994;4.448;2022-09-01T05:58:25;18.47;62.64
71291;DHT22;59073;51.994;4.448;2022-09-01T06:00:54;18.47;62.63
71291;DHT22;59073;51.994;4.448;2022-09-01T06:03:22;18.81;62.68
71291;DHT22;59073;51.994;4.448;2022-09-01T06:05:51;18.75;61.42
71291;DHT22;59073;51.994;4.448;2022-09-01T06:08:23;18.54;62.49
71291;DHT22;59073;51.994;4.448;2022-09-01T06:10:51;18.81;61.56
71291;DHT22;59073;51.994;4.448;2022-09-01T06:13:18;19.59;59.46
71291;DHT22;59073;51.994;4.448;2022-09-01T06:16:11;19.63;59.09
71291;DHT22;59073;51.994;4.448;2022-09-01T06:18:43;19.69;59.12
71291;DHT22;59073;51.994;4.448;2022-09-01T06:21:20;20.00;57.34
71291;DHT22;59073;51.994;4.448;2022-09-01T06:24:04;20.00;57.95
71291;DHT22;59073;51.994;4.448;2022-09-01T06:26:51;19.60;59.72
71291;DHT22;59073;51.994;4.448;2022-09-01T06:29:18;20.36;56.80
71291;DHT22;59073;51.994;4.448;2022-09-01T06:31:44;20.39;56.09
71291;DHT22;59073;51.994;4.448;2022-09-01T06:34:16;20.56;56.37
71291;DHT22;59073;51.994;4.448;2022-09-01T06:36:47;20.62;55.44
71291;DHT22;59073;51.994;4.448;2022-09-01T06:39:14;20.83;55.07
71291;DHT22;59073;51.994;4.448;2022-09-01T06:41:48;20.43;57.03
71291;DHT22;59073;51.994;4.448;2022-09-01T06:44:18;20.89;55.03
71291;DHT22;59073;51.994;4.448;2022-09-01T06:46:57;21.17;55.17
71291;DHT22;59073;51.994;4.448;2022-09-01T06:49:24;21.23;53.50
71291;DHT22;59073;51.994;4.448;2022-09-01T06:58:47;20.63;55.19
71291;DHT22;59073;51.994;4.448;2022-09-01T07:01:36;20.65;54.90
71291;DHT22;59073;51.994;4.448;2022-09-01T07:04:05;20.55;55.23
71291;DHT22;59073;51.994;4.448;2022-09-01T07:06:31;20.69;56.71
71291;DHT22;59073;51.994;4.448;2022-09-01T07:08:58;20.42;57.21
71291;DHT22;59073;51.994;4.448;2022-09-01T07:11:29;20.42;57.44
71291;DHT22;59073;51.994;4.448;2022-09-01T07:13:59;20.28;56.78
71291;DHT22;59073;51.994;4.448;2022-09-01T07:16:30;20.28;56.59
71291;DHT22;59073;51.994;4.448;2022-09-01T07:19:00;19.85;57.60
71291;DHT22;59073;51.994;4.448;2022-09-01T07:21:28;18.81;60.13
71291;DHT22;59073;51.994;4.448;2022-09-01T07:23:55;18.55;62.41
71291;DHT22;59073;51.994;4.448;2022-09-01T07:26:39;18.71;60.73
71291;DHT22;59073;51.994;4.448;2022-09-01T07:32:36;19.67;59.35
71291;DHT22;59073;51.994;4.448;2022-09-01T07:35:04;19.45;58.55
71291;DHT22;59073;51.994;4.448;2022-09-01T07:37:30;19.45;59.55
71291;DHT22;59073;51.994;4.448;2022-09-01T07:39:56;19.16;59.25
71291;DHT22;59073;51.994;4.448;2022-09-01T07:42:22;18.88;60.30
71291;DHT22;59073;51.994;4.448;2022-09-01T07:44:48;19.15;58.64
71291;DHT22;59073;51.994;4.448;2022-09-01T07:47:15;19.13;58.93
71291;DHT22;59073;51.994;4.448;2022-09-01T07:49:41;19.08;58.50
71291;DHT22;59073;51.994;4.448;2022-09-01T07:52:07;19.15;59.80
71291;DHT22;59073;51.994;4.448;2022-09-01T07:58:04;19.23;58.41
71291;DHT22;59073;51.994;4.448;2022-09-01T08:00:29;19.30;59.37
71291;DHT22;59073;51.994;4.448;2022-09-01T08:02:55;19.50;58.22
71291;DHT22;59073;51.994;4.448;2022-09-01T08:05:21;19.59;57.89
71291;DHT22;59073;51.994;4.448;2022-09-01T08:07:52;19.50;58.69
71291;DHT22;59073;51.994;4.448;2022-09-01T08:10:21;19.69;57.43
71291;DHT22;59073;51.994;4.448;2022-09-01T08:12:47;20.14;59.86
71291;DHT22;59073;51.994;4.448;2022-09-01T08:15:13;19.81;56.41
71291;DHT22;59073;51.994;4.448;2022-09-01T08:17:39;20.15;56.37
71291;DHT22;59073;51.994;4.448;2022-09-01T08:20:05;20.42;57.13
71291;DHT22;59073;51.994;4.448;2022-09-01T08:22:34;20.39;55.39
71291;DHT22;59073;51.994;4.448;2022-09-01T08:24:59;20.72;55.12
71291;DHT22;59073;51.994;4.448;2022-09-01T08:27:25;20.28;55.63
71291;DHT22;59073;51.994;4.448;2022-09-01T08:29:50;20.33;57.81
71291;DHT22;59073;51.994;4.448;2022-09-01T08:32:16;20.04;57.24
71291;DHT22;59073;51.994;4.448;2022-09-01T08:34:45;20.10;57.32
71291;DHT22;59073;51.994;4.448;2022-09-01T08:37:10;20.14;57.74
71291;DHT22;59073;51.994;4.448;2022-09-01T08:39:38;20.26;57.48
71291;DHT22;59073;51.994;4.448;2022-09-01T08:42:17;20.26;58.41
71291;DHT22;59073;51.994;4.448;2022-09-01T08:45:08;20.66;58.54
71291;DHT22;59073;51.994;4.448;2022-09-01T08:47:38;20.93;56.72
71291;DHT22;59073;51.994;4.448;2022-09-01T08:50:07;21.04;56.18
71291;DHT22;59073;51.994;4.448;2022-09-01T08:52:38;21.07;56.78
71291;DHT22;59073;51.994;4.448;2022-09-01T08:57:35;20.97;55.51
71291;DHT22;59073;51.994;4.448;2022-09-01T09:00:03;21.23;55.68
71291;DHT22;59073;51.994;4.448;2022-09-01T09:05:30;21.42;55.07
71291;DHT22;59073;51.994;4.448;2022-09-01T09:08:14;22.10;52.89
71291;DHT22;59073;51.994;4.448;2022-09-01T09:11:00;21.62;54.19
71291;DHT22;59073;51.994;4.448;2022-09-01T09:16:25;21.99;54.98
71291;DHT22;59073;51.994;4.448;2022-09-01T09:19:07;21.68;54.30
71291;DHT22;59073;51.994;4.448;2022-09-01T09:21:36;21.62;52.94
71291;DHT22;59073;51.994;4.448;2022-09-01T09:24:29;21.92;53.73
71291;DHT22;59073;51.994;4.448;2022-09-01T09:30:33;21.78;52.30
71291;DHT22;59073;51.994;4.448;2022-09-01T09:33:02;21.93;52.79
71291;DHT22;59073;51.994;4.448;2022-09-01T09:35:35;22.39;53.66
71291;DHT22;59073;51.994;4.448;2022-09-01T09:46:37;22.71;51.98
71291;DHT22;59073;51.994;4.448;2022-09-01T09:51:32;22.53;51.28
71291;DHT22;59073;51.994;4.448;2022-09-01T09:54:14;22.97;51.84
71291;DHT22;59073;51.994;4.448;2022-09-01T09:56:43;23.31;49.99
71291;DHT22;59073;51.994;4.448;2022-09-01T10:01:56;22.92;49.29
71291;DHT22;59073;51.994;4.448;2022-09-01T10:04:39;22.75;49.99
71291;DHT22;59073;51.994;4.448;2022-09-01T10:07:34;23.04;48.40
71291;DHT22;59073;51.994;4.448;2022-09-01T10:13:19;23.43;48.52
71291;DHT22;59073;51.994;4.448;2022-09-01T10:16:08;23.32;48.82
71291;DHT22;59073;51.994;4.448;2022-09-01T10:18:41;23.16;48.90
71291;DHT22;59073;51.994;4.448;2022-09-01T10:21:22;23.39;46.96
71291;DHT22;59073;51.994;4.448;2022-09-01T10:23:52;23.72;46.35
71291;DHT22;59073;51.994;4.448;2022-09-01T10:26:24;23.65;46.78
71291;DHT22;59073;51.994;4.448;2022-09-01T10:29:14;23.76;46.80
71291;DHT22;59073;51.994;4.448;2022-09-01T10:31:45;23.35;45.42
71291;DHT22;59073;51.994;4.448;2022-09-01T10:34:15;23.74;47.29
71291;DHT22;59073;51.994;4.448;2022-09-01T10:36:44;24.00;45.21
71291;DHT22;59073;51.994;4.448;2022-09-01T10:39:14;24.06;45.48
71291;DHT22;59073;51.994;4.448;2022-09-01T10:41:54;23.82;44.35
71291;DHT22;59073;51.994;4.448;2022-09-01T10:44:24;23.96;44.73
71291;DHT22;59073;51.994;4.448;2022-09-01T10:46:56;24.42;45.37
71291;DHT22;59073;51.994;4.448;2022-09-01T10:51:52;24.32;44.03
71291;DHT22;59073;51.994;4.448;2022-09-01T10:59:48;23.96;44.78
71291;DHT22;59073;51.994;4.448;2022-09-01T11:15:34;24.11;44.76
71291;DHT22;59073;51.994;4.448;2022-09-01T11:18:23;24.34;45.41
71291;DHT22;59073;51.994;4.448;2022-09-01T11:20:51;24.07;43.56
71291;DHT22;59073;51.994;4.448;2022-09-01T11:23:28;24.21;44.08
71291;DHT22;59073;51.994;4.448;2022-09-01T11:25:56;24.55;43.21
71291;DHT22;59073;51.994;4.448;2022-09-01T11:30:58;24.78;43.55
71291;DHT22;59073;51.994;4.448;2022-09-01T11:34:03;24.24;42.18
71291;DHT22;59073;51.994;4.448;2022-09-01T11:41:45;23.96;43.11
71291;DHT22;59073;51.994;4.448;2022-09-01T11:46:46;24.37;43.46
71291;DHT22;59073;51.994;4.448;2022-09-01T11:49:39;24.68;41.50
71291;DHT22;59073;51.994;4.448;2022-09-01T11:52:15;24.76;41.22
71291;DHT22;59073;51.994;4.448;2022-09-01T11:54:42;24.88;40.45
71291;DHT22;59073;51.994;4.448;2022-09-01T11:57:34;24.88;40.61
71291;DHT22;59073;51.994;4.448;2022-09-01T12:00:04;24.50;40.78
71291;DHT22;59073;51.994;4.448;2022-09-01T12:02:33;24.99;41.63
71291;DHT22;59073;51.994;4.448;2022-09-01T12:05:01;25.24;40.93
71291;DHT22;59073;51.994;4.448;2022-09-01T12:07:39;24.98;42.59
71291;DHT22;59073;51.994;4.448;2022-09-01T12:10:34;24.75;40.29
71291;DHT22;59073;51.994;4.448;2022-09-01T12:13:21;24.85;41.74
71291;DHT22;59073;51.994;4.448;2022-09-01T12:15:56;24.73;40.10
71291;DHT22;59073;51.994;4.448;2022-09-01T12:18:26;24.78;40.42
71291;DHT22;59073;51.994;4.448;2022-09-01T12:20:54;24.61;40.93
71291;DHT22;59073;51.994;4.448;2022-09-01T12:23:32;24.81;40.77
71291;DHT22;59073;51.994;4.448;2022-09-01T12:26:02;24.73;38.55
71291;DHT22;59073;51.994;4.448;2022-09-01T12:57:55;24.85;38.50
71291;DHT22;59073;51.994;4.448;2022-09-01T13:23:35;24.79;38.15
71291;DHT22;59073;51.994;4.448;2022-09-01T13:26:41;24.83;38.37
71291;DHT22;59073;51.994;4.448;2022-09-01T13:30:21;25.03;38.77
71291;DHT22;59073;51.994;4.448;2022-09-01T13:32:33;25.26;36.75
71291;DHT22;59073;51.994;4.448;2022-09-01T13:34:58;25.08;36.74
71291;DHT22;59073;51.994;4.448;2022-09-01T13:37:24;25.53;36.38
71291;DHT22;59073;51.994;4.448;2022-09-01T13:39:49;25.39;37.43
71291;DHT22;59073;51.994;4.448;2022-09-01T13:42:30;25.53;34.74
71291;DHT22;59073;51.994;4.448;2022-09-01T13:44:55;25.84;34.53
71291;DHT22;59073;51.994;4.448;2022-09-01T13:47:21;25.56;35.50
71291;DHT22;59073;51.994;4.448;2022-09-01T13:49:48;24.86;37.11
71291;DHT22;59073;51.994;4.448;2022-09-01T13:52:14;24.93;36.95
71291;DHT22;59073;51.994;4.448;2022-09-01T13:54:39;25.03;38.32
71291;DHT22;59073;51.994;4.448;2022-09-01T13:57:12;25.10;35.72
71291;DHT22;59073;51.994;4.448;2022-09-01T13:59:38;25.23;35.76
71291;DHT22;59073;51.994;4.448;2022-09-01T14:02:06;25.08;36.25
71291;DHT22;59073;51.994;4.448;2022-09-01T14:04:32;25.19;37.77
71291;DHT22;59073;51.994;4.448;2022-09-01T14:06:57;24.98;36.60
71291;DHT22;59073;51.994;4.448;2022-09-01T14:09:24;24.82;36.58
71291;DHT22;59073;51.994;4.448;2022-09-01T14:11:53;25.12;35.23
71291;DHT22;59073;51.994;4.448;2022-09-01T14:14:19;25.40;36.71
71291;DHT22;59073;51.994;4.448;2022-09-01T14:16:45;25.27;34.36
71291;DHT22;59073;51.994;4.448;2022-09-01T14:19:11;25.43;34.30
71291;DHT22;59073;51.994;4.448;2022-09-01T14:21:37;25.42;33.58
71291;DHT22;59073;51.994;4.448;2022-09-01T14:24:03;24.62;35.10
71291;DHT22;59073;51.994;4.448;2022-09-01T14:26:29;24.57;36.08
71291;DHT22;59073;51.994;4.448;2022-09-01T14:28:55;24.79;35.00
71291;DHT22;59073;51.994;4.448;2022-09-01T14:31:20;24.69;34.87
71291;DHT22;59073;51.994;4.448;2022-09-01T14:33:49;24.82;35.78
71291;DHT22;59073;51.994;4.448;2022-09-01T14:36:21;24.73;35.79
71291;DHT22;59073;51.994;4.448;2022-09-01T14:38:48;24.75;35.85
71291;DHT22;59073;51.994;4.448;2022-09-01T14:41:15;24.82;36.07
71291;DHT22;59073;51.994;4.448;2022-09-01T14:43:41;24.85;35.74
71291;DHT22;59073;51.994;4.448;2022-09-01T14:46:08;25.27;33.82
71291;DHT22;59073;51.994;4.448;2022-09-01T14:48:37;24.85;36.74
71291;DHT22;59073;51.994;4.448;2022-09-01T14:51:03;24.75;35.77
71291;DHT22;59073;51.994;4.448;2022-09-01T14:53:30;24.98;35.45
71291;DHT22;59073;51.994;4.448;2022-09-01T14:55:58;24.34;35.81
71291;DHT22;59073;51.994;4.448;2022-09-01T14:58:26;24.27;36.52
71291;DHT22;59073;51.994;4.448;2022-09-01T15:00:53;24.25;36.02
71291;DHT22;59073;51.994;4.448;2022-09-01T15:03:21;24.23;37.24
71291;DHT22;59073;51.994;4.448;2022-09-01T15:05:47;24.21;37.52
71291;DHT22;59073;51.994;4.448;2022-09-01T15:08:15;24.21;37.73
71291;DHT22;59073;51.994;4.448;2022-09-01T15:10:41;24.40;36.28
71291;DHT22;59073;51.994;4.448;2022-09-01T15:13:07;24.37;36.50
71291;DHT22;59073;51.994;4.448;2022-09-01T15:15:32;24.41;38.28
71291;DHT22;59073;51.994;4.448;2022-09-01T15:17:59;24.23;37.93
71291;DHT22;59073;51.994;4.448;2022-09-01T15:20:27;24.06;37.72
71291;DHT22;59073;51.994;4.448;2022-09-01T15:23:20;24.11;38.47
71291;DHT22;59073;51.994;4.448;2022-09-01T15:25:46;24.11;39.11
71291;DHT22;59073;51.994;4.448;2022-09-01T15:28:13;24.16;36.67
71291;DHT22;59073;51.994;4.448;2022-09-01T15:30:39;24.23;36.37
71291;DHT22;59073;51.994;4.448;2022-09-01T15:33:07;24.25;36.42
71291;DHT22;59073;51.994;4.448;2022-09-01T15:35:33;24.45;37.92
71291;DHT22;59073;51.994;4.448;2022-09-01T15:37:59;24.41;36.84
71291;DHT22;59073;51.994;4.448;2022-09-01T15:40:25;24.48;37.43
71291;DHT22;59073;51.994;4.448;2022-09-01T15:42:52;24.32;36.74
71291;DHT22;59073;51.994;4.448;2022-09-01T15:45:20;24.13;37.17
71291;DHT22;59073;51.994;4.448;2022-09-01T15:47:49;24.11;38.06
71291;DHT22;59073;51.994;4.448;2022-09-01T15:50:18;24.14;38.32
71291;DHT22;59073;51.994;4.448;2022-09-01T15:53:02;24.10;37.71
71291;DHT22;59073;51.994;4.448;2022-09-01T15:55:37;24.18;38.38
71291;DHT22;59073;51.994;4.448;2022-09-01T15:58:05;24.17;38.78
71291;DHT22;59073;51.994;4.448;2022-09-01T16:00:30;24.10;37.72
71291;DHT22;59073;51.994;4.448;2022-09-01T16:02:56;24.30;37.64
71291;DHT22;59073;51.994;4.448;2022-09-01T16:05:26;24.40;36.20
71291;DHT22;59073;51.994;4.448;2022-09-01T16:07:52;24.40;36.17
71291;DHT22;59073;51.994;4.448;2022-09-01T16:10:18;24.27;37.39
71291;DHT22;59073;51.994;4.448;2022-09-01T16:12:44;24.24;37.43
71291;DHT22;59073;51.994;4.448;2022-09-01T16:15:16;24.09;38.42
71291;DHT22;59073;51.994;4.448;2022-09-01T16:20:20;24.16;37.27
71291;DHT22;59073;51.994;4.448;2022-09-01T16:23:13;23.99;38.61
71291;DHT22;59073;51.994;4.448;2022-09-01T16:25:39;24.04;37.42
71291;DHT22;59073;51.994;4.448;2022-09-01T16:28:28;24.18;36.40
71291;DHT22;59073;51.994;4.448;2022-09-01T16:31:16;24.23;38.78
71291;DHT22;59073;51.994;4.448;2022-09-01T16:33:50;24.21;37.17
71291;DHT22;59073;51.994;4.448;2022-09-01T16:39:06;24.04;37.53
71291;DHT22;59073;51.994;4.448;2022-09-01T16:50:11;24.17;37.75
71291;DHT22;59073;51.994;4.448;2022-09-01T16:53:00;24.13;37.13
71291;DHT22;59073;51.994;4.448;2022-09-01T16:58:26;23.97;37.47
71291;DHT22;59073;51.994;4.448;2022-09-01T17:07:06;24.03;38.48
71291;DHT22;59073;51.994;4.448;2022-09-01T17:09:44;23.87;39.50
71291;DHT22;59073;51.994;4.448;2022-09-01T17:12:44;23.83;37.50
71291;DHT22;59073;51.994;4.448;2022-09-01T17:15:13;23.74;37.35
71291;DHT22;59073;51.994;4.448;2022-09-01T17:17:57;23.89;38.27
71291;DHT22;59073;51.994;4.448;2022-09-01T17:20:32;23.63;36.83
71291;DHT22;59073;51.994;4.448;2022-09-01T17:23:08;23.76;38.11
71291;DHT22;59073;51.994;4.448;2022-09-01T17:25:50;23.55;38.57
71291;DHT22;59073;51.994;4.448;2022-09-01T17:28:24;23.72;38.67
71291;DHT22;59073;51.994;4.448;2022-09-01T17:31:08;23.72;38.71
71291;DHT22;59073;51.994;4.448;2022-09-01T17:36:58;23.48;38.56
71291;DHT22;59073;51.994;4.448;2022-09-01T17:39:40;23.46;38.36
71291;DHT22;59073;51.994;4.448;2022-09-01T17:44:54;23.49;38.41
71291;DHT22;59073;51.994;4.448;2022-09-01T17:47:45;23.48;37.99
71291;DHT22;59073;51.994;4.448;2022-09-01T17:55:41;23.38;38.75
71291;DHT22;59073;51.994;4.448;2022-09-01T17:58:34;23.72;37.46
71291;DHT22;59073;51.994;4.448;2022-09-01T18:01:27;23.83;39.73
71291;DHT22;59073;51.994;4.448;2022-09-01T18:06:49;23.62;40.49
71291;DHT22;59073;51.994;4.448;2022-09-01T18:09:19;23.53;41.14
71291;DHT22;59073;51.994;4.448;2022-09-01T18:11:58;23.46;41.53
71291;DHT22;59073;51.994;4.448;2022-09-01T18:14:51;23.39;41.96
71291;DHT22;59073;51.994;4.448;2022-09-01T18:17:28;23.28;42.62
71291;DHT22;59073;51.994;4.448;2022-09-01T18:20:23;23.07;42.90
71291;DHT22;59073;51.994;4.448;2022-09-01T18:23:02;23.07;44.00
71291;DHT22;59073;51.994;4.448;2022-09-01T18:25:53;22.78;44.92
71291;DHT22;59073;51.994;4.448;2022-09-01T18:28:20;22.61;45.21
71291;DHT22;59073;51.994;4.448;2022-09-01T18:33:37;22.47;45.65
71291;DHT22;59073;51.994;4.448;2022-09-01T18:36:31;22.35;45.73
71291;DHT22;59073;51.994;4.448;2022-09-01T18:47:29;22.39;46.70
71291;DHT22;59073;51.994;4.448;2022-09-01T18:50:02;22.37;46.77
71291;DHT22;59073;51.994;4.448;2022-09-01T18:58:26;22.05;48.73
71291;DHT22;59073;51.994;4.448;2022-09-01T19:01:03;21.69;50.81
71291;DHT22;59073;51.994;4.448;2022-09-01T19:11:32;21.41;51.60
71291;DHT22;59073;51.994;4.448;2022-09-01T19:20:11;21.33;51.32
71291;DHT22;59073;51.994;4.448;2022-09-01T19:22:54;21.33;51.33
71291;DHT22;59073;51.994;4.448;2022-09-01T19:25:22;21.27;51.53
71291;DHT22;59073;51.994;4.448;2022-09-01T19:28:19;21.19;51.84
71291;DHT22;59073;51.994;4.448;2022-09-01T19:33:20;20.96;52.29
71291;DHT22;59073;51.994;4.448;2022-09-01T19:35:59;20.96;52.07
71291;DHT22;59073;51.994;4.448;2022-09-01T19:38:29;20.97;52.38
71291;DHT22;59073;51.994;4.448;2022-09-01T19:41:09;20.89;52.60
71291;DHT22;59073;51.994;4.448;2022-09-01T19:43:39;20.75;53.12